sensor_id;sensor_type;location;lat;lon;timestamp;pressure;altitude;pressure_sealevel;temperature;humidity
41945;BME280;63122;52.424;13.458;2023-02-28T00:03:08;102497.16;;;2.55;100.00
41945;BME280;63122;52.424;13.458;2023-02-28T00:05:04;102498.13;;;2.53;100.00
41945;BME280;63122;52.424;13.458;2023-02-28T00:07:00;102499.72;;;2.57;100.00
41945;BME280;63122;52.424;13.458;2023-02-28T00:08:55;102491.13;;;2.55;100.00
41945;BME280;63122;52.424;13.458;2023-02-28T00:10:50;102495.31;;;2.59;100.00
41945;BME280;63122;52.424;13.458;2023-02-28T00:12:45;102485.84;;;2.56;100.00
41945;BME280;63122;52.424;13.458;2023-02-28T00:14:40;102491.91;;;2.57;100.00
41945;BME280;63122;52.424;13.458;2023-02-28T00:16:35;102498.13;;;2.53;100.00
41945;BME280;63122;52.424;13.458;2023-02-28T00:18:33;102498.13;;;2.53;100.00
41945;BME280;63122;52.424;13.458;2023-02-28T00:20:28;102498.13;;;2.53;100.00
41945;BME280;63122;52.424;13.458;2023-02-28T00:22:24;102498.97;;;2.53;100.00
41945;BME280;63122;52.424;13.458;2023-02-28T00:24:19;102498.94;;;2.55;100.00
41945;BME280;63122;52.424;13.458;2023-02-28T00:26:14;102501.56;;;2.53;100.00
41945;BME280;63122;52.424;13.458;2023-02-28T00:28:12;102504.28;;;2.50;100.00
41945;BME280;63122;52.424;13.458;2023-02-28T00:30:10;102495.72;;;2.47;100.00
41945;BME280;63122;52.424;13.458;2023-02-28T00:32:06;102493.13;;;2.47;100.00
41945;BME280;63122;52.424;13.458;2023-02-28T00:34:04;102500.81;;;2.50;100.00
41945;BME280;63122;52.424;13.458;2023-02-28T00:36:04;102500.78;;;2.51;100.00
41945;BME280;63122;52.424;13.458;2023-02-28T00:37:59;102497.38;;;2.49;100.00
41945;BME280;63122;52.424;13.458;2023-02-28T00:39:54;102497.59;;;2.43;100.00
41945;BME280;63122;52.424;13.458;2023-02-28T00:41:50;102502.94;;;2.40;100.00
41945;BME280;63122;52.424;13.458;2023-02-28T00:43:45;102500.25;;;2.41;100.00
41945;BME280;63122;52.424;13.458;2023-02-28T00:45:40;102500.13;;;2.44;100.00
41945;BME280;63122;52.424;13.458;2023-02-28T00:47:35;102504.44;;;2.45;100.00
41945;BME280;63122;52.424;13.458;2023-02-28T00:49:34;102507.00;;;2.47;100.00
41945;BME280;63122;52.424;13.458;2023-02-28T00:51:29;102500.91;;;2.48;100.00
41945;BME280;63122;52.424;13.458;2023-02-28T00:53:24;102499.03;;;2.52;100.00
41945;BME280;63122;52.424;13.458;2023-02-28T00:55:20;102503.44;;;2.50;100.00
41945;BME280;63122;52.424;13.458;2023-02-28T00:57:15;102506.91;;;2.50;100.00
41945;BME280;63122;52.424;13.458;2023-02-28T00:59:10;102503.50;;;2.48;100.00
41945;BME280;63122;52.424;13.458;2023-02-28T01:01:06;102501.72;;;2.49;100.00
41945;BME280;63122;52.424;13.458;2023-02-28T01:03:02;102511.34;;;2.47;100.00
41945;BME280;63122;52.424;13.458;2023-02-28T01:05:00;102508.81;;;2.45;100.00
41945;BME280;63122;52.424;13.458;2023-02-28T01:06:55;102502.75;;;2.44;100.00
41945;BME280;63122;52.424;13.458;2023-02-28T01:08:51;102506.16;;;2.47;100.00
41945;BME280;63122;52.424;13.458;2023-02-28T01:10:48;102505.31;;;2.46;100.00
41945;BME280;63122;52.424;13.458;2023-02-28T01:12:45;102504.44;;;2.45;100.00
41945;BME280;63122;52.424;13.458;2023-02-28T01:14:40;102494.88;;;2.46;100.00
41945;BME280;63122;52.424;13.458;2023-02-28T01:16:38;102500.09;;;2.46;100.00
41945;BME280;63122;52.424;13.458;2023-02-28T01:18:34;102500.56;;;2.32;100.00
41945;BME280;63122;52.424;13.458;2023-02-28T01:20:37;102498.38;;;2.20;100.00
41945;BME280;63122;52.424;13.458;2023-02-28T01:22:35;102496.53;;;2.23;100.00
41945;BME280;63122;52.424;13.458;2023-02-28T01:24:30;102492.91;;;2.27;100.00
41945;BME280;63122;52.424;13.458;2023-02-28T01:26:31;102498.00;;;2.30;100.00
41945;BME280;63122;52.424;13.458;2023-02-28T01:28:27;102496.28;;;2.31;100.00
41945;BME280;63122;52.424;13.458;2023-02-28T01:30:22;102490.06;;;2.35;100.00
41945;BME280;63122;52.424;13.458;2023-02-28T01:32:17;102494.25;;;2.39;100.00
41945;BME280;63122;52.424;13.458;2023-02-28T01:34:12;102495.94;;;2.40;100.00
41945;BME280;63122;52.424;13.458;2023-02-28T01:36:11;102491.91;;;2.32;100.00
41945;BME280;63122;52.424;13.458;2023-02-28T01:38:06;102490.66;;;2.16;100.00
41945;BME280;63122;52.424;13.458;2023-02-28T01:40:14;102484.00;;;2.08;100.00
41945;BME280;63122;52.424;13.458;2023-02-28T01:42:09;102486.16;;;1.95;100.00
41945;BME280;63122;52.424;13.458;2023-02-28T01:44:06;102487.28;;;1.87;100.00
41945;BME280;63122;52.424;13.458;2023-02-28T01:46:01;102482.03;;;1.89;100.00
41945;BME280;63122;52.424;13.458;2023-02-28T01:48:00;102486.34;;;1.90;100.00
41945;BME280;63122;52.424;13.458;2023-02-28T01:49:57;102488.16;;;1.88;100.00
41945;BME280;63122;52.424;13.458;2023-02-28T01:51:56;102484.47;;;1.94;100.00
41945;BME280;63122;52.424;13.458;2023-02-28T01:53:55;102492.00;;;2.03;100.00
41945;BME280;63122;52.424;13.458;2023-02-28T01:55:52;102488.53;;;2.03;100.00
41945;BME280;63122;52.424;13.458;2023-02-28T01:57:50;102490.19;;;2.05;100.00
41945;BME280;63122;52.424;13.458;2023-02-28T01:59:50;102489.28;;;2.06;100.00
41945;BME280;63122;52.424;13.458;2023-02-28T02:01:46;102489.44;;;2.01;100.00
41945;BME280;63122;52.424;13.458;2023-02-28T02:03:42;102486.03;;;1.99;100.00
41945;BME280;63122;52.424;13.458;2023-02-28T02:05:39;102494.84;;;1.95;100.00
41945;BME280;63122;52.424;13.458;2023-02-28T02:07:44;102490.84;;;1.85;100.00
41945;BME280;63122;52.424;13.458;2023-02-28T02:09:40;102485.34;;;1.66;100.00
41945;BME280;63122;52.424;13.458;2023-02-28T02:11:35;102490.44;;;1.70;100.00
41945;BME280;63122;52.424;13.458;2023-02-28T02:13:53;102489.81;;;1.62;100.00
41945;BME280;63122;52.424;13.458;2023-02-28T02:16:00;102490.63;;;1.64;100.00
41945;BME280;63122;52.424;13.458;2023-02-28T02:18:01;102487.00;;;1.70;100.00
41945;BME280;63122;52.424;13.458;2023-02-28T02:20:20;102480.72;;;1.76;100.00
41945;BME280;63122;52.424;13.458;2023-02-28T02:22:37;102480.63;;;1.79;100.00
41945;BME280;63122;52.424;13.458;2023-02-28T02:24:59;102485.75;;;1.82;100.00
41945;BME280;63122;52.424;13.458;2023-02-28T02:27:23;102477.03;;;1.83;100.00
41945;BME280;63122;52.424;13.458;2023-02-28T02:29:49;102483.22;;;1.79;100.00
41945;BME280;63122;52.424;13.458;2023-02-28T02:32:01;102474.91;;;1.67;100.00
41945;BME280;63122;52.424;13.458;2023-02-28T02:36:40;102487.03;;;1.68;100.00
41945;BME280;63122;52.424;13.458;2023-02-28T02:38:47;102485.53;;;1.61;100.00
41945;BME280;63122;52.424;13.458;2023-02-28T02:40:48;102491.66;;;1.58;100.00
41945;BME280;63122;52.424;13.458;2023-02-28T02:42:50;102490.75;;;1.60;100.00
41945;BME280;63122;52.424;13.458;2023-02-28T02:44:53;102488.41;;;1.52;100.00
41945;BME280;63122;52.424;13.458;2023-02-28T02:46:54;102479.69;;;1.53;100.00
41945;BME280;63122;52.424;13.458;2023-02-28T02:48:55;102485.16;;;1.45;100.00
41945;BME280;63122;52.424;13.458;2023-02-28T02:50:54;102483.69;;;1.36;100.00
41945;BME280;63122;52.424;13.458;2023-02-28T02:52:56;102483.59;;;1.39;100.00
41945;BME280;63122;52.424;13.458;2023-02-28T02:54:54;102484.34;;;1.43;100.00
41945;BME280;63122;52.424;13.458;2023-02-28T02:56:51;102489.38;;;1.48;100.00
41945;BME280;63122;52.424;13.458;2023-02-28T02:58:49;102489.59;;;1.41;100.00
41945;BME280;63122;52.424;13.458;2023-02-28T03:00:50;102487.78;;;1.43;100.00
41945;BME280;63122;52.424;13.458;2023-02-28T03:02:47;102485.19;;;1.43;100.00
41945;BME280;63122;52.424;13.458;2023-02-28T03:04:48;102490.53;;;1.39;100.00
41945;BME280;63122;52.424;13.458;2023-02-28T03:06:45;102488.88;;;1.36;100.00
41945;BME280;63122;52.424;13.458;2023-02-28T03:08:43;102486.38;;;1.33;100.00
41945;BME280;63122;52.424;13.458;2023-02-28T03:10:40;102493.28;;;1.34;100.00
41945;BME280;63122;52.424;13.458;2023-02-28T03:12:41;102492.38;;;1.35;100.00
41945;BME280;63122;52.424;13.458;2023-02-28T03:14:54;102498.50;;;1.33;100.00
41945;BME280;63122;52.424;13.458;2023-02-28T03:17:16;102494.13;;;1.35;100.00
41945;BME280;63122;52.424;13.458;2023-02-28T03:19:45;102495.91;;;1.33;100.00
41945;BME280;63122;52.424;13.458;2023-02-28T03:22:04;102490.78;;;1.31;100.00
41945;BME280;63122;52.424;13.458;2023-02-28T03:24:15;102499.56;;;1.27;100.00
41945;BME280;63122;52.424;13.458;2023-02-28T03:26:20;102503.00;;;1.27;100.00
41945;BME280;63122;52.424;13.458;2023-02-28T03:28:19;102500.53;;;1.23;100.00
41945;BME280;63122;52.424;13.458;2023-02-28T03:30:24;102502.44;;;1.18;100.00
41945;BME280;63122;52.424;13.458;2023-02-28T03:32:27;102504.13;;;1.19;100.00
41945;BME280;63122;52.424;13.458;2023-02-28T03:34:29;102500.78;;;1.15;100.00
41945;BME280;63122;52.424;13.458;2023-02-28T03:36:29;102503.31;;;1.17;100.00
41945;BME280;63122;52.424;13.458;2023-02-28T03:38:29;102501.69;;;1.14;100.00
41945;BME280;63122;52.424;13.458;2023-02-28T03:40:30;102504.22;;;1.15;100.00
41945;BME280;63122;52.424;13.458;2023-02-28T03:42:29;102509.47;;;1.14;100.00
41945;BME280;63122;52.424;13.458;2023-02-28T03:44:29;102503.47;;;1.12;100.00
41945;BME280;63122;52.424;13.458;2023-02-28T03:46:32;102507.63;;;1.18;100.00
41945;BME280;63122;52.424;13.458;2023-02-28T03:48:44;102512.03;;;1.15;100.00
41945;BME280;63122;52.424;13.458;2023-02-28T03:50:44;102504.41;;;1.09;100.00
41945;BME280;63122;52.424;13.458;2023-02-28T03:52:47;102505.31;;;1.08;100.00
41945;BME280;63122;52.424;13.458;2023-02-28T03:54:47;102511.34;;;1.09;100.00
41945;BME280;63122;52.424;13.458;2023-02-28T03:56:50;102499.38;;;1.03;100.00
41945;BME280;63122;52.424;13.458;2023-02-28T03:58:53;102502.88;;;1.02;100.00
41945;BME280;63122;52.424;13.458;2023-02-28T04:00:52;102503.69;;;1.04;100.00
41945;BME280;63122;52.424;13.458;2023-02-28T04:02:50;102505.56;;;0.99;100.00
41945;BME280;63122;52.424;13.458;2023-02-28T04:04:45;102509.09;;;0.96;100.00
41945;BME280;63122;52.424;13.458;2023-02-28T04:06:42;102511.72;;;0.95;100.00
41945;BME280;63122;52.424;13.458;2023-02-28T04:08:37;102502.28;;;0.92;100.00
41945;BME280;63122;52.424;13.458;2023-02-28T04:10:32;102499.81;;;0.88;100.00
41945;BME280;63122;52.424;13.458;2023-02-28T04:12:30;102510.22;;;0.88;100.00
41945;BME280;63122;52.424;13.458;2023-02-28T04:14:26;102504.28;;;0.82;100.00
41945;BME280;63122;52.424;13.458;2023-02-28T04:16:21;102506.88;;;0.82;100.00
41945;BME280;63122;52.424;13.458;2023-02-28T04:18:26;102513.00;;;0.80;100.00
41945;BME280;63122;52.424;13.458;2023-02-28T04:20:22;102513.25;;;0.72;100.00
41945;BME280;63122;52.424;13.458;2023-02-28T04:22:16;102513.16;;;0.75;100.00
41945;BME280;63122;52.424;13.458;2023-02-28T04:24:13;102514.94;;;0.73;100.00
41945;BME280;63122;52.424;13.458;2023-02-28T04:26:08;102512.44;;;0.70;100.00
41945;BME280;63122;52.424;13.458;2023-02-28T04:28:06;102511.53;;;0.71;100.00
41945;BME280;63122;52.424;13.458;2023-02-28T04:30:02;102514.16;;;0.69;100.00
41945;BME280;63122;52.424;13.458;2023-02-28T04:31:58;102509.75;;;0.73;100.00
41945;BME280;63122;52.424;13.458;2023-02-28T04:33:55;102513.25;;;0.72;100.00
41945;BME280;63122;52.424;13.458;2023-02-28T04:35:58;102519.19;;;0.76;100.00
41945;BME280;63122;52.424;13.458;2023-02-28T04:37:54;102517.56;;;0.71;100.00
41945;BME280;63122;52.424;13.458;2023-02-28T04:39:49;102521.09;;;0.69;100.00
41945;BME280;63122;52.424;13.458;2023-02-28T04:41:45;102522.00;;;0.68;100.00
41945;BME280;63122;52.424;13.458;2023-02-28T04:43:43;102517.84;;;0.62;100.00
41945;BME280;63122;52.424;13.458;2023-02-28T04:45:38;102522.13;;;0.63;100.00
41945;BME280;63122;52.424;13.458;2023-02-28T04:47:33;102525.72;;;0.59;100.00
41945;BME280;63122;52.424;13.458;2023-02-28T04:49:28;102518.03;;;0.54;100.00
41945;BME280;63122;52.424;13.458;2023-02-28T04:51:23;102525.84;;;0.53;100.00
41945;BME280;63122;52.424;13.458;2023-02-28T04:53:19;102527.50;;;0.57;100.00
41945;BME280;63122;52.424;13.458;2023-02-28T04:55:15;102524.94;;;0.55;100.00
41945;BME280;63122;52.424;13.458;2023-02-28T04:57:10;102529.22;;;0.56;100.00
41945;BME280;63122;52.424;13.458;2023-02-28T04:59:08;102530.13;;;0.55;100.00
41945;BME280;63122;52.424;13.458;2023-02-28T05:01:04;102531.00;;;0.56;100.00
41945;BME280;63122;52.424;13.458;2023-02-28T05:03:04;102535.41;;;0.52;100.00
41945;BME280;63122;52.424;13.458;2023-02-28T05:05:00;102534.44;;;0.55;100.00
41945;BME280;63122;52.424;13.458;2023-02-28T05:06:55;102529.47;;;0.47;100.00
41945;BME280;63122;52.424;13.458;2023-02-28T05:08:50;102533.28;;;0.34;100.00
41945;BME280;63122;52.424;13.458;2023-02-28T05:10:45;102536.81;;;0.31;100.00
41945;BME280;63122;52.424;13.458;2023-02-28T05:12:40;102542.84;;;0.32;100.00
41945;BME280;63122;52.424;13.458;2023-02-28T05:14:38;102535.22;;;0.25;100.00
41945;BME280;63122;52.424;13.458;2023-02-28T05:16:33;102537.91;;;0.21;100.00
41945;BME280;63122;52.424;13.458;2023-02-28T05:18:28;102532.72;;;0.21;100.00
41945;BME280;63122;52.424;13.458;2023-02-28T05:20:23;102538.72;;;0.23;100.00
41945;BME280;63122;52.424;13.458;2023-02-28T05:22:18;102537.91;;;0.22;100.00
41945;BME280;63122;52.424;13.458;2023-02-28T05:24:13;102541.38;;;0.21;100.00
41945;BME280;63122;52.424;13.458;2023-02-28T05:26:15;102539.69;;;0.20;100.00
41945;BME280;63122;52.424;13.458;2023-02-28T05:28:09;102540.56;;;0.19;100.00
41945;BME280;63122;52.424;13.458;2023-02-28T05:30:09;102541.41;;;0.20;100.00
41945;BME280;63122;52.424;13.458;2023-02-28T05:32:04;102536.56;;;0.06;100.00
41945;BME280;63122;52.424;13.458;2023-02-28T05:34:00;102535.72;;;0.05;100.00
41945;BME280;63122;52.424;13.458;2023-02-28T05:35:56;102540.75;;;0.11;100.00
41945;BME280;63122;52.424;13.458;2023-02-28T05:37:51;102540.78;;;0.10;100.00
41945;BME280;63122;52.424;13.458;2023-02-28T05:39:46;102538.19;;;0.10;100.00
41945;BME280;63122;52.424;13.458;2023-02-28T05:41:42;102543.34;;;0.11;100.00
41945;BME280;63122;52.424;13.458;2023-02-28T05:43:38;102546.03;;;0.08;100.00
41945;BME280;63122;52.424;13.458;2023-02-28T05:45:35;102547.78;;;0.06;100.00
41945;BME280;63122;52.424;13.458;2023-02-28T05:47:30;102550.41;;;0.05;100.00
41945;BME280;63122;52.424;13.458;2023-02-28T05:49:26;102547.06;;;0.01;100.00
41945;BME280;63122;52.424;13.458;2023-02-28T05:51:20;102541.31;;;-0.12;100.00
41945;BME280;63122;52.424;13.458;2023-02-28T05:53:15;102546.50;;;-0.12;100.00
41945;BME280;63122;52.424;13.458;2023-02-28T05:55:11;102545.56;;;-0.09;100.00
41945;BME280;63122;52.424;13.458;2023-02-28T05:57:06;102551.53;;;-0.06;100.00
41945;BME280;63122;52.424;13.458;2023-02-28T05:59:15;102554.94;;;-0.04;100.00
41945;BME280;63122;52.424;13.458;2023-02-28T06:01:24;102556.66;;;-0.04;100.00
41945;BME280;63122;52.424;13.458;2023-02-28T06:03:26;102560.94;;;-0.02;100.00
41945;BME280;63122;52.424;13.458;2023-02-28T06:05:21;102551.41;;;-0.01;100.00
41945;BME280;63122;52.424;13.458;2023-02-28T06:07:17;102561.03;;;-0.05;100.00
41945;BME280;63122;52.424;13.458;2023-02-28T06:09:14;102557.56;;;-0.05;100.00
41945;BME280;63122;52.424;13.458;2023-02-28T06:11:10;102559.31;;;-0.06;100.00
41945;BME280;63122;52.424;13.458;2023-02-28T06:13:05;102559.41;;;-0.10;100.00
41945;BME280;63122;52.424;13.458;2023-02-28T06:15:00;102561.22;;;-0.14;100.00
41945;BME280;63122;52.424;13.458;2023-02-28T06:16:58;102557.94;;;-0.21;100.00
41945;BME280;63122;52.424;13.458;2023-02-28T06:18:54;102563.88;;;-0.16;100.00
41945;BME280;63122;52.424;13.458;2023-02-28T06:20:52;102559.41;;;-0.10;100.00
41945;BME280;63122;52.424;13.458;2023-02-28T06:22:47;102563.72;;;-0.09;100.00
41945;BME280;63122;52.424;13.458;2023-02-28T06:24:43;102567.19;;;-0.09;100.00
41945;BME280;63122;52.424;13.458;2023-02-28T06:26:38;102566.31;;;-0.09;100.00
41945;BME280;63122;52.424;13.458;2023-02-28T06:28:33;102564.59;;;-0.09;100.00
41945;BME280;63122;52.424;13.458;2023-02-28T06:30:30;102570.63;;;-0.08;100.00
41945;BME280;63122;52.424;13.458;2023-02-28T06:32:28;102576.53;;;-0.02;100.00
41945;BME280;63122;52.424;13.458;2023-02-28T06:34:23;102575.81;;;-0.08;100.00
41945;BME280;63122;52.424;13.458;2023-02-28T06:36:19;102576.69;;;-0.09;100.00
41945;BME280;63122;52.424;13.458;2023-02-28T06:38:14;102581.00;;;-0.08;100.00
41945;BME280;63122;52.424;13.458;2023-02-28T06:40:11;102581.94;;;-0.11;100.00
41945;BME280;63122;52.424;13.458;2023-02-28T06:42:06;102587.97;;;-0.10;100.00
41945;BME280;63122;52.424;13.458;2023-02-28T06:44:01;102587.88;;;-0.07;100.00
41945;BME280;63122;52.424;13.458;2023-02-28T06:45:59;102593.97;;;-0.08;100.00
41945;BME280;63122;52.424;13.458;2023-02-28T06:47:57;102594.84;;;-0.08;100.00
41945;BME280;63122;52.424;13.458;2023-02-28T06:49:53;102590.47;;;-0.06;100.00
41945;BME280;63122;52.424;13.458;2023-02-28T06:51:48;102594.84;;;-0.08;100.00
41945;BME280;63122;52.424;13.458;2023-02-28T06:53:43;102595.72;;;-0.09;100.00
41945;BME280;63122;52.424;13.458;2023-02-28T06:55:38;102599.94;;;-0.05;100.00
41945;BME280;63122;52.424;13.458;2023-02-28T06:57:35;102601.56;;;0.01;100.00
41945;BME280;63122;52.424;13.458;2023-02-28T06:59:30;102598.03;;;0.04;100.00
41945;BME280;63122;52.424;13.458;2023-02-28T07:01:25;102602.38;;;0.03;100.00
41945;BME280;63122;52.424;13.458;2023-02-28T07:03:23;102598.91;;;0.04;100.00
41945;BME280;63122;52.424;13.458;2023-02-28T07:05:18;102596.16;;;0.09;100.00
41945;BME280;63122;52.424;13.458;2023-02-28T07:07:13;102601.28;;;0.12;100.00
41945;BME280;63122;52.424;13.458;2023-02-28T07:09:09;102603.84;;;0.15;100.00
41945;BME280;63122;52.424;13.458;2023-02-28T07:11:04;102609.03;;;0.15;100.00
41945;BME280;63122;52.424;13.458;2023-02-28T07:13:00;102603.75;;;0.18;100.00
41945;BME280;63122;52.424;13.458;2023-02-28T07:14:55;102607.09;;;0.23;100.00
41945;BME280;63122;52.424;13.458;2023-02-28T07:16:50;102607.03;;;0.26;100.00
41945;BME280;63122;52.424;13.458;2023-02-28T07:18:48;102612.03;;;0.34;100.00
41945;BME280;63122;52.424;13.458;2023-02-28T07:20:43;102607.59;;;0.38;100.00
41945;BME280;63122;52.424;13.458;2023-02-28T07:22:38;102606.69;;;0.40;100.00
41945;BME280;63122;52.424;13.458;2023-02-28T07:24:34;102601.34;;;0.47;100.00
41945;BME280;63122;52.424;13.458;2023-02-28T07:26:30;102612.53;;;0.49;100.00
41945;BME280;63122;52.424;13.458;2023-02-28T07:28:26;102609.75;;;0.56;100.00
41945;BME280;63122;52.424;13.458;2023-02-28T07:30:21;102601.94;;;0.58;100.00
41945;BME280;63122;52.424;13.458;2023-02-28T07:32:16;102610.41;;;0.65;100.00
41945;BME280;63122;52.424;13.458;2023-02-28T07:34:15;102604.31;;;0.66;100.00
41945;BME280;63122;52.424;13.458;2023-02-28T07:36:13;102610.28;;;0.71;100.00
41945;BME280;63122;52.424;13.458;2023-02-28T07:38:11;102616.13;;;0.78;100.00
41945;BME280;63122;52.424;13.458;2023-02-28T07:40:13;102615.06;;;0.86;100.00
41945;BME280;63122;52.424;13.458;2023-02-28T07:42:15;102607.06;;;0.94;100.00
41945;BME280;63122;52.424;13.458;2023-02-28T07:44:12;102615.56;;;1.01;100.00
41945;BME280;63122;52.424;13.458;2023-02-28T07:46:09;102611.91;;;1.07;100.00
41945;BME280;63122;52.424;13.458;2023-02-28T07:48:07;102613.47;;;1.14;100.00
41945;BME280;63122;52.424;13.458;2023-02-28T07:50:06;102612.44;;;1.20;100.00
41945;BME280;63122;52.424;13.458;2023-02-28T07:52:02;102610.69;;;1.20;100.00
41945;BME280;63122;52.424;13.458;2023-02-28T07:53:58;102615.75;;;1.25;100.00
41945;BME280;63122;52.424;13.458;2023-02-28T07:55:57;102617.16;;;1.37;100.00
41945;BME280;63122;52.424;13.458;2023-02-28T07:57:53;102614.50;;;1.40;100.00
41945;BME280;63122;52.424;13.458;2023-02-28T07:59:48;102618.72;;;1.44;100.00
41945;BME280;63122;52.424;13.458;2023-02-28T08:01:44;102613.22;;;1.53;100.00
41945;BME280;63122;52.424;13.458;2023-02-28T08:03:42;102617.22;;;1.65;100.00
41945;BME280;63122;52.424;13.458;2023-02-28T08:05:45;102615.19;;;1.75;100.00
41945;BME280;63122;52.424;13.458;2023-02-28T08:07:41;102618.28;;;1.88;100.00
41945;BME280;63122;52.424;13.458;2023-02-28T08:09:38;102618.06;;;1.96;100.00
41945;BME280;63122;52.424;13.458;2023-02-28T08:11:33;102615.16;;;2.05;100.00
41945;BME280;63122;52.424;13.458;2023-02-28T08:13:30;102623.53;;;2.15;100.00
41945;BME280;63122;52.424;13.458;2023-02-28T08:15:27;102623.25;;;2.24;100.00
41945;BME280;63122;52.424;13.458;2023-02-28T08:17:22;102622.13;;;2.32;100.00
41945;BME280;63122;52.424;13.458;2023-02-28T08:19:17;102621.56;;;2.49;100.00
41945;BME280;63122;52.424;13.458;2023-02-28T08:21:18;102617.56;;;2.65;100.00
41945;BME280;63122;52.424;13.458;2023-02-28T08:23:13;102621.66;;;2.72;100.00
41945;BME280;63122;52.424;13.458;2023-02-28T08:25:09;102617.06;;;2.81;100.00
41945;BME280;63122;52.424;13.458;2023-02-28T08:27:04;102613.16;;;2.93;100.00
41945;BME280;63122;52.424;13.458;2023-02-28T08:28:59;102616.25;;;3.04;100.00
41945;BME280;63122;52.424;13.458;2023-02-28T08:30:54;102615.75;;;3.18;100.00
41945;BME280;63122;52.424;13.458;2023-02-28T08:32:50;102621.66;;;3.23;100.00
41945;BME280;63122;52.424;13.458;2023-02-28T08:34:45;102616.31;;;3.26;94.56
41945;BME280;63122;52.424;13.458;2023-02-28T08:36:43;102622.97;;;3.35;93.55
41945;BME280;63122;52.424;13.458;2023-02-28T08:38:38;102620.88;;;3.45;93.65
41945;BME280;63122;52.424;13.458;2023-02-28T08:40:36;102624.94;;;3.52;95.03
41945;BME280;63122;52.424;13.458;2023-02-28T08:42:32;102619.28;;;3.65;97.50
41945;BME280;63122;52.424;13.458;2023-02-28T08:44:28;102624.06;;;3.75;95.48
41945;BME280;63122;52.424;13.458;2023-02-28T08:46:23;102621.59;;;3.72;94.62
41945;BME280;63122;52.424;13.458;2023-02-28T08:48:20;102625.84;;;3.97;91.22
41945;BME280;63122;52.424;13.458;2023-02-28T08:50:18;102627.75;;;4.16;88.10
41945;BME280;63122;52.424;13.458;2023-02-28T08:52:16;102625.19;;;4.14;86.45
41945;BME280;63122;52.424;13.458;2023-02-28T08:54:11;102622.81;;;4.30;82.58
41945;BME280;63122;52.424;13.458;2023-02-28T08:56:10;102614.75;;;4.37;75.41
41945;BME280;63122;52.424;13.458;2023-02-28T08:58:05;102619.44;;;4.49;72.84
41945;BME280;63122;52.424;13.458;2023-02-28T09:00:09;102613.44;;;4.47;72.74
41945;BME280;63122;52.424;13.458;2023-02-28T09:02:05;102615.88;;;4.52;73.79
41945;BME280;63122;52.424;13.458;2023-02-28T09:04:01;102611.41;;;4.74;73.83
41945;BME280;63122;52.424;13.458;2023-02-28T09:05:58;102615.66;;;4.98;70.40
41945;BME280;63122;52.424;13.458;2023-02-28T09:07:55;102614.56;;;5.03;66.01
41945;BME280;63122;52.424;13.458;2023-02-28T09:09:51;102612.63;;;5.07;66.55
41945;BME280;63122;52.424;13.458;2023-02-28T09:11:49;102619.19;;;5.17;71.07
41945;BME280;63122;52.424;13.458;2023-02-28T09:13:45;102620.03;;;5.37;67.17
41945;BME280;63122;52.424;13.458;2023-02-28T09:15:41;102623.44;;;5.39;63.92
41945;BME280;63122;52.424;13.458;2023-02-28T09:17:36;102616.88;;;5.30;64.73
41945;BME280;63122;52.424;13.458;2023-02-28T09:19:31;102615.25;;;5.07;67.32
41945;BME280;63122;52.424;13.458;2023-02-28T09:21:26;102617.59;;;5.13;68.30
41945;BME280;63122;52.424;13.458;2023-02-28T09:23:24;102613.97;;;5.37;66.52
41945;BME280;63122;52.424;13.458;2023-02-28T09:25:19;102615.38;;;5.63;62.87
41945;BME280;63122;52.424;13.458;2023-02-28T09:27:15;102620.88;;;5.76;59.31
41945;BME280;63122;52.424;13.458;2023-02-28T09:29:11;102613.66;;;5.81;57.96
41945;BME280;63122;52.424;13.458;2023-02-28T09:31:12;102623.25;;;6.01;57.91
41945;BME280;63122;52.424;13.458;2023-02-28T09:33:07;102621.19;;;6.26;54.90
41945;BME280;63122;52.424;13.458;2023-02-28T09:35:03;102619.53;;;6.42;51.05
41945;BME280;63122;52.424;13.458;2023-02-28T09:36:58;102615.06;;;6.44;49.65
41945;BME280;63122;52.424;13.458;2023-02-28T09:38:59;102623.84;;;6.43;48.86
41945;BME280;63122;52.424;13.458;2023-02-28T09:40:57;102618.66;;;6.42;47.53
41945;BME280;63122;52.424;13.458;2023-02-28T09:42:54;102622.13;;;6.60;47.33
41945;BME280;63122;52.424;13.458;2023-02-28T09:44:52;102619.28;;;6.47;47.54
41945;BME280;63122;52.424;13.458;2023-02-28T09:46:49;102611.09;;;6.71;47.65
41945;BME280;63122;52.424;13.458;2023-02-28T09:48:57;102620.03;;;6.14;48.21
41945;BME280;63122;52.424;13.458;2023-02-28T09:51:00;102617.44;;;6.49;49.15
41945;BME280;63122;52.424;13.458;2023-02-28T09:52:57;102603.34;;;7.03;47.17
41945;BME280;63122;52.424;13.458;2023-02-28T09:54:56;102612.91;;;7.38;46.93
41945;BME280;63122;52.424;13.458;2023-02-28T09:56:58;102617.00;;;7.59;44.26
41945;BME280;63122;52.424;13.458;2023-02-28T09:58:59;102611.47;;;7.80;43.42
41945;BME280;63122;52.424;13.458;2023-02-28T10:00:59;102614.25;;;7.77;42.99
41945;BME280;63122;52.424;13.458;2023-02-28T10:03:06;102618.66;;;8.09;41.72
41945;BME280;63122;52.424;13.458;2023-02-28T10:05:09;102618.63;;;8.25;42.17
41945;BME280;63122;52.424;13.458;2023-02-28T10:07:17;102621.56;;;8.34;41.01
41945;BME280;63122;52.424;13.458;2023-02-28T10:09:18;102618.19;;;8.32;39.88
41945;BME280;63122;52.424;13.458;2023-02-28T10:11:19;102610.59;;;8.42;40.98
41945;BME280;63122;52.424;13.458;2023-02-28T10:13:21;102621.09;;;8.58;42.26
41945;BME280;63122;52.424;13.458;2023-02-28T10:15:18;102617.25;;;8.64;41.85